createdAt,value
2018-09-12T00:01:20.875Z,0.80
2018-09-12T00:03:49.830Z,1.23
2018-09-12T00:06:18.850Z,1.40
2018-09-12T00:08:47.843Z,1.37
2018-09-12T00:11:16.934Z,0.97
2018-09-12T00:13:45.963Z,2.10
2018-09-12T00:16:15.073Z,1.03
2018-09-12T00:18:44.063Z,1.30
2018-09-12T00:21:13.124Z,0.90
2018-09-12T00:23:42.142Z,1.00
2018-09-12T00:26:11.197Z,0.93
2018-09-12T00:28:40.089Z,0.80
2018-09-12T00:31:09.132Z,0.90
2018-09-12T00:33:38.111Z,1.47
2018-09-12T00:36:07.057Z,1.10
2018-09-12T00:38:36.121Z,1.00
2018-09-12T00:41:05.198Z,1.13
2018-09-12T00:43:34.121Z,0.80
2018-09-12T00:46:03.161Z,1.10
2018-09-12T00:48:32.174Z,1.30
2018-09-12T00:51:01.193Z,1.17
2018-09-12T00:53:30.126Z,1.07
2018-09-12T00:55:59.105Z,0.87
2018-09-12T00:58:28.058Z,1.20
2018-09-12T01:00:57.102Z,1.10
2018-09-12T01:03:26.026Z,0.97
2018-09-12T01:05:55.002Z,1.10
2018-09-12T01:08:23.953Z,0.73
2018-09-12T01:10:52.937Z,1.30
2018-09-12T01:13:21.870Z,1.20
2018-09-12T01:15:50.877Z,0.97
2018-09-12T01:18:20.849Z,1.10
2018-09-12T01:20:51.422Z,0.87
2018-09-12T01:23:21.365Z,1.27
2018-09-12T01:25:50.388Z,1.10
2018-09-12T01:28:19.410Z,0.87
2018-09-12T01:30:48.454Z,1.40
2018-09-12T01:33:17.377Z,0.67
2018-09-12T01:35:46.346Z,0.80
2018-09-12T01:38:15.326Z,0.77
2018-09-12T01:40:44.350Z,0.90
2018-09-12T01:43:13.294Z,1.20
2018-09-12T01:45:42.321Z,1.00
2018-09-12T01:48:11.227Z,0.80
2018-09-12T01:50:40.349Z,1.30
2018-09-12T01:53:09.266Z,1.57
2018-09-12T01:55:38.267Z,0.87
2018-09-12T01:58:07.377Z,1.77
2018-09-12T02:00:39.438Z,0.93
2018-09-12T02:03:08.662Z,0.90
2018-09-12T02:05:38.329Z,0.90
2018-09-12T02:08:07.598Z,0.97
2018-09-12T02:10:36.584Z,1.43
2018-09-12T02:13:05.554Z,0.93
2018-09-12T02:15:34.488Z,1.23
2018-09-12T02:18:03.476Z,1.00
2018-09-12T02:20:32.425Z,2.13
2018-09-12T02:23:01.378Z,1.30
2018-09-12T02:25:30.349Z,1.00
2018-09-12T02:27:59.307Z,0.90
2018-09-12T02:30:28.212Z,1.33
2018-09-12T02:32:57.191Z,1.13
2018-09-12T02:35:26.120Z,1.10
2018-09-12T02:37:55.125Z,1.00
2018-09-12T02:40:24.072Z,1.70
2018-09-12T02:42:53.014Z,0.90
2018-09-12T02:45:21.981Z,1.60
2018-09-12T02:47:51.008Z,1.13
2018-09-12T02:50:19.922Z,1.00
2018-09-12T02:52:48.930Z,1.60
2018-09-12T02:55:17.888Z,1.23
2018-09-12T02:57:46.977Z,1.20
2018-09-12T03:00:15.936Z,1.13
2018-09-12T03:02:44.939Z,0.97
2018-09-12T03:05:13.949Z,1.07
2018-09-12T03:07:43.001Z,1.27
2018-09-12T03:10:12.067Z,1.27
2018-09-12T03:12:41.002Z,0.90
2018-09-12T03:15:09.966Z,1.00
2018-09-12T03:17:39.101Z,1.47
2018-09-12T03:20:08.016Z,1.00
2018-09-12T03:22:37.046Z,1.20
2018-09-12T03:25:06.002Z,1.00
2018-09-12T03:27:35.052Z,1.00
2018-09-12T03:30:04.066Z,0.80
2018-09-12T03:32:33.129Z,1.10
2018-09-12T03:35:02.016Z,0.90
2018-09-12T03:37:31.054Z,0.93
2018-09-12T03:40:00.041Z,1.57
2018-09-12T03:42:29.026Z,1.20
2018-09-12T03:44:58.118Z,1.60
2018-09-12T03:47:27.141Z,1.43
2018-09-12T03:49:56.089Z,1.67
2018-09-12T03:52:25.142Z,1.23
2018-09-12T03:54:54.041Z,1.20
2018-09-12T03:57:23.014Z,1.20
2018-09-12T03:59:52.026Z,1.03
2018-09-12T04:02:21.110Z,1.13
2018-09-12T04:04:50.080Z,0.93
2018-09-12T04:07:19.271Z,0.80
2018-09-12T04:09:48.293Z,0.67
2018-09-12T04:12:17.257Z,1.80
2018-09-12T04:14:46.246Z,1.50
2018-09-12T04:17:15.282Z,1.17
2018-09-12T04:19:44.236Z,1.37
2018-09-12T04:22:13.190Z,0.87
2018-09-12T04:24:42.180Z,1.07
2018-09-12T04:27:11.330Z,0.90
2018-09-12T04:29:40.393Z,1.40
2018-09-12T04:32:09.454Z,1.10
2018-09-12T04:34:38.421Z,1.10
2018-09-12T04:37:07.561Z,1.17
2018-09-12T04:39:36.601Z,1.20
2018-09-12T04:42:05.798Z,1.83
2018-09-12T04:44:34.771Z,1.20
2018-09-12T04:47:03.929Z,1.10
2018-09-12T04:49:32.913Z,1.60
2018-09-12T04:52:01.930Z,0.90
2018-09-12T04:54:30.901Z,1.07
2018-09-12T04:56:59.865Z,1.50
2018-09-12T04:59:28.910Z,1.10
2018-09-12T05:01:57.927Z,1.23
2018-09-12T05:04:26.978Z,1.50
2018-09-12T05:06:55.977Z,1.20
2018-09-12T05:09:24.947Z,1.10
2018-09-12T05:11:53.949Z,1.20
2018-09-12T05:14:22.979Z,1.23
2018-09-12T05:16:52.132Z,1.17
2018-09-12T05:19:21.175Z,1.50
2018-09-12T05:21:50.205Z,1.30
2018-09-12T05:24:19.277Z,1.53
2018-09-12T05:26:48.329Z,1.40
2018-09-12T05:29:17.308Z,1.67
2018-09-12T05:31:46.414Z,1.30
2018-09-12T05:34:15.402Z,1.67
2018-09-12T05:36:44.377Z,1.83
2018-09-12T05:39:13.380Z,1.70
2018-09-12T05:41:42.377Z,1.27
2018-09-12T05:44:11.357Z,1.30
2018-09-12T05:46:40.352Z,1.70
2018-09-12T05:49:09.278Z,1.53
2018-09-12T05:51:38.346Z,1.40
2018-09-12T05:54:07.386Z,1.00
2018-09-12T05:56:36.533Z,1.13
2018-09-12T05:59:05.713Z,1.53
2018-09-12T06:01:34.718Z,1.90
2018-09-12T06:04:03.740Z,1.30
2018-09-12T06:06:32.771Z,1.20
2018-09-12T06:09:01.691Z,1.10
2018-09-12T06:11:30.671Z,1.10
2018-09-12T06:13:59.680Z,1.63
2018-09-12T06:16:29.448Z,1.40
2018-09-12T06:18:58.560Z,1.23
2018-09-12T06:21:27.857Z,1.30
2018-09-12T06:23:56.787Z,1.40
2018-09-12T06:26:25.761Z,1.10
2018-09-12T06:28:54.766Z,1.53
2018-09-12T06:31:23.659Z,1.67
2018-09-12T06:33:52.620Z,2.10
2018-09-12T06:36:21.677Z,1.30
2018-09-12T06:38:50.602Z,1.50
2018-09-12T06:41:19.577Z,1.70
2018-09-12T06:43:48.589Z,1.37
2018-09-12T06:46:17.527Z,1.93
2018-09-12T06:48:46.698Z,1.70
2018-09-12T06:51:15.761Z,1.30
2018-09-12T06:53:44.859Z,1.50
2018-09-12T06:56:14.348Z,1.57
2018-09-12T06:58:43.381Z,1.40
2018-09-12T07:01:12.354Z,1.57
2018-09-12T07:03:41.372Z,1.70
2018-09-12T07:06:10.309Z,2.13
2018-09-12T07:08:39.356Z,1.70
2018-09-12T07:11:08.340Z,1.30
2018-09-12T07:13:37.388Z,1.23
2018-09-12T07:16:06.369Z,1.07
2018-09-12T07:18:35.418Z,1.57
2018-09-12T07:21:04.362Z,2.30
2018-09-12T07:23:33.420Z,1.77
2018-09-12T07:26:02.382Z,1.30
2018-09-12T07:28:31.498Z,1.17
2018-09-12T07:31:00.442Z,1.30
2018-09-12T07:33:29.457Z,1.40
2018-09-12T07:35:58.481Z,1.00
2018-09-12T07:38:27.567Z,1.40
2018-09-12T07:40:56.517Z,1.40
2018-09-12T07:43:25.576Z,1.40
2018-09-12T07:45:54.613Z,1.43
2018-09-12T07:48:23.610Z,1.63
2018-09-12T07:50:52.576Z,1.53
2018-09-12T07:53:21.554Z,1.17
2018-09-12T07:55:50.516Z,1.73
2018-09-12T07:58:19.547Z,1.33
2018-09-12T08:00:48.618Z,1.43
2018-09-12T08:03:17.594Z,0.90
2018-09-12T08:05:46.593Z,1.50
2018-09-12T08:08:15.647Z,1.03
2018-09-12T08:10:44.565Z,1.27
2018-09-12T08:13:13.570Z,1.40
2018-09-12T08:15:42.509Z,1.23
2018-09-12T08:18:11.446Z,1.40
2018-09-12T08:20:40.370Z,1.17
2018-09-12T08:23:09.398Z,1.43
2018-09-12T08:25:38.369Z,1.27
2018-09-12T08:28:07.416Z,1.20
2018-09-12T08:30:36.441Z,1.30
2018-09-12T08:33:05.558Z,1.20
2018-09-12T08:35:34.733Z,1.20
2018-09-12T08:38:04.094Z,1.30
2018-09-12T08:40:33.101Z,0.93
2018-09-12T08:43:02.032Z,1.27
2018-09-12T08:45:30.965Z,1.13
2018-09-12T08:48:00.126Z,1.20
2018-09-12T08:50:29.000Z,1.10
2018-09-12T08:52:58.018Z,1.50
2018-09-12T08:55:27.058Z,1.07
2018-09-12T08:57:56.174Z,0.90
2018-09-12T09:00:30.845Z,0.90
2018-09-12T09:02:59.870Z,1.20
2018-09-12T09:05:28.821Z,0.87
2018-09-12T09:07:57.919Z,1.43
2018-09-12T09:10:27.461Z,1.17
2018-09-12T09:12:57.528Z,0.97
2018-09-12T09:15:27.309Z,1.10
2018-09-12T09:17:56.633Z,1.77
2018-09-12T09:20:26.026Z,1.10
2018-09-12T09:22:55.193Z,1.13
2018-09-12T09:25:24.211Z,1.47
2018-09-12T09:27:53.177Z,1.33
2018-09-12T09:30:22.372Z,1.20
2018-09-12T09:32:51.357Z,1.00
2018-09-12T09:35:20.339Z,1.43
2018-09-12T09:37:49.249Z,0.90
2018-09-12T09:40:18.224Z,1.00
2018-09-12T09:42:47.222Z,1.27
2018-09-12T09:45:16.262Z,1.10
2018-09-12T09:47:45.287Z,1.07
2018-09-12T09:50:14.321Z,1.20
2018-09-12T09:52:43.260Z,1.20
2018-09-12T09:55:12.353Z,1.50
2018-09-12T09:57:41.322Z,0.97
2018-09-12T10:00:16.183Z,1.23
2018-09-12T10:02:50.445Z,0.90
2018-09-12T10:05:24.737Z,1.10
2018-09-12T10:07:59.037Z,1.00
2018-09-12T10:10:28.076Z,1.43
2018-09-12T10:12:57.098Z,0.80
2018-09-12T10:15:26.103Z,0.97
2018-09-12T10:17:55.146Z,1.20
2018-09-12T10:20:24.227Z,0.80
2018-09-12T10:22:53.227Z,1.07
2018-09-12T10:25:22.234Z,1.23
2018-09-12T10:27:51.195Z,1.70
2018-09-12T10:30:20.328Z,0.93
2018-09-12T10:32:49.296Z,0.97
2018-09-12T10:35:18.297Z,1.70
2018-09-12T10:37:47.197Z,1.10
2018-09-12T10:40:16.505Z,1.30
2018-09-12T10:42:45.655Z,1.10
2018-09-12T10:45:14.710Z,0.70
2018-09-12T10:47:43.694Z,0.90
2018-09-12T10:50:12.898Z,1.83
2018-09-12T10:52:41.890Z,1.20
2018-09-12T10:55:10.862Z,1.07
2018-09-12T10:57:39.855Z,1.00
2018-09-12T11:00:09.306Z,1.13
2018-09-12T11:02:38.337Z,1.30
2018-09-12T11:05:07.451Z,1.30
2018-09-12T11:07:36.482Z,1.30
2018-09-12T11:10:05.526Z,1.20
2018-09-12T11:12:34.449Z,1.13
2018-09-12T11:15:03.627Z,1.13
2018-09-12T11:17:32.590Z,1.10
2018-09-12T11:20:01.626Z,1.07
2018-09-12T11:22:30.561Z,1.20
2018-09-12T11:24:59.617Z,1.30
2018-09-12T11:27:28.570Z,0.97
2018-09-12T11:29:57.550Z,0.97
2018-09-12T11:32:26.531Z,1.30
2018-09-12T11:34:55.590Z,1.27
2018-09-12T11:37:24.563Z,1.07
2018-09-12T11:39:53.630Z,1.00
2018-09-12T11:42:22.585Z,0.90
2018-09-12T11:44:51.611Z,0.90
2018-09-12T11:47:20.616Z,1.20
2018-09-12T11:49:49.681Z,1.30
2018-09-12T11:52:18.688Z,1.20
2018-09-12T11:54:48.104Z,1.50
2018-09-12T11:57:17.474Z,0.93
2018-09-12T11:59:46.504Z,1.10
2018-09-12T12:02:15.575Z,1.40
2018-09-12T12:04:44.474Z,1.40
2018-09-12T12:07:13.489Z,1.37
2018-09-12T12:09:42.571Z,0.97
2018-09-12T12:12:11.762Z,0.77
2018-09-12T12:14:40.719Z,1.20
2018-09-12T12:17:09.669Z,1.20
2018-09-12T12:19:38.641Z,1.00
2018-09-12T12:22:07.701Z,1.23
2018-09-12T12:24:36.706Z,1.10
2018-09-12T12:27:06.007Z,1.03
2018-09-12T12:29:35.172Z,1.00
2018-09-12T12:32:04.266Z,0.67
2018-09-12T12:34:33.259Z,0.90
2018-09-12T12:37:02.301Z,0.77
2018-09-12T12:39:31.322Z,0.80
2018-09-12T12:42:00.320Z,0.73
2018-09-12T12:44:29.311Z,1.07
2018-09-12T12:46:58.456Z,0.60
2018-09-12T12:49:27.434Z,0.80
2018-09-12T12:51:56.555Z,0.50
2018-09-12T12:54:25.597Z,0.70
2018-09-12T12:56:54.665Z,0.70
2018-09-12T12:59:23.686Z,0.80
2018-09-12T13:01:52.858Z,0.53
2018-09-12T13:04:21.983Z,0.47
2018-09-12T13:06:51.113Z,2.97
2018-09-12T13:09:20.023Z,0.60
2018-09-12T13:11:49.050Z,0.60
2018-09-12T13:14:17.989Z,0.60
2018-09-12T13:16:47.013Z,0.57
2018-09-12T13:19:16.052Z,0.80
2018-09-12T13:21:45.108Z,0.50
2018-09-12T13:24:14.179Z,0.60
2018-09-12T13:26:43.122Z,0.70
2018-09-12T13:29:12.091Z,0.77
2018-09-12T13:31:41.133Z,0.40
2018-09-12T13:34:10.314Z,0.63
2018-09-12T13:36:39.349Z,0.53
2018-09-12T13:39:15.293Z,0.70
2018-09-12T13:41:44.338Z,1.07
2018-09-12T13:44:13.342Z,0.37
2018-09-12T13:46:42.334Z,0.70
2018-09-12T13:49:11.262Z,0.53
2018-09-12T13:51:40.266Z,0.40
2018-09-12T13:54:09.219Z,0.43
2018-09-12T13:56:38.287Z,0.50
2018-09-12T13:59:07.309Z,0.53
2018-09-12T14:01:36.405Z,0.50
2018-09-12T14:04:05.354Z,0.80
2018-09-12T14:06:34.345Z,0.60
2018-09-12T14:09:03.473Z,0.57
2018-09-12T14:11:32.462Z,0.60
2018-09-12T14:14:01.571Z,0.60
2018-09-12T14:16:30.581Z,0.70
2018-09-12T14:18:59.567Z,3.47
2018-09-12T14:21:28.560Z,5.13
2018-09-12T14:23:57.671Z,0.60
2018-09-12T14:26:26.714Z,1.53
2018-09-12T14:28:55.824Z,0.63
2018-09-12T14:31:24.842Z,0.50
2018-09-12T14:33:53.910Z,0.73
2018-09-12T14:36:22.864Z,0.90
2018-09-12T14:38:51.955Z,0.60
2018-09-12T14:41:20.917Z,0.73
2018-09-12T14:43:49.921Z,0.70
2018-09-12T14:46:18.830Z,0.90
2018-09-12T14:48:47.883Z,1.10
2018-09-12T14:51:16.897Z,1.10
2018-09-12T14:53:45.869Z,1.00
2018-09-12T14:56:14.864Z,0.80
2018-09-12T14:58:43.854Z,1.07
2018-09-12T15:01:12.846Z,1.60
2018-09-12T15:03:41.756Z,1.00
2018-09-12T15:06:10.743Z,1.00
2018-09-12T15:08:39.851Z,0.80
2018-09-12T15:11:08.781Z,0.90
2018-09-12T15:13:37.835Z,0.60
2018-09-12T15:16:06.801Z,0.50
2018-09-12T15:18:35.866Z,0.80
2018-09-12T15:21:04.809Z,0.70
2018-09-12T15:23:33.917Z,0.60
2018-09-12T15:26:02.873Z,0.60
2018-09-12T15:28:32.067Z,0.90
2018-09-12T15:31:01.086Z,0.80
2018-09-12T15:33:30.161Z,1.00
2018-09-12T15:35:59.133Z,1.43
2018-09-12T15:38:28.093Z,1.03
2018-09-12T15:40:57.102Z,1.30
2018-09-12T15:43:26.035Z,1.50
2018-09-12T15:45:54.927Z,0.73
2018-09-12T15:48:23.930Z,0.93
2018-09-12T15:50:52.814Z,0.60
2018-09-12T15:53:21.891Z,0.73
2018-09-12T15:55:50.898Z,0.80
2018-09-12T15:58:19.940Z,0.73
2018-09-12T16:00:48.810Z,0.80
2018-09-12T16:03:17.806Z,0.80
2018-09-12T16:05:46.852Z,0.70
2018-09-12T16:08:15.853Z,0.67
2018-09-12T16:10:44.802Z,0.77
2018-09-12T16:13:13.911Z,0.80
2018-09-12T16:15:42.905Z,0.50
2018-09-12T16:18:11.917Z,0.63
2018-09-12T16:20:40.906Z,0.67
2018-09-12T16:23:09.921Z,0.80
2018-09-12T16:25:38.917Z,0.83
2018-09-12T16:28:07.870Z,0.90
2018-09-12T16:30:36.864Z,0.73
2018-09-12T16:33:05.963Z,1.00
2018-09-12T16:35:34.925Z,0.70
2018-09-12T16:38:03.885Z,0.80
2018-09-12T16:40:32.865Z,1.13
2018-09-12T16:43:01.927Z,0.97
2018-09-12T16:45:30.913Z,0.70
2018-09-12T16:47:59.954Z,1.07
2018-09-12T16:50:28.921Z,0.90
2018-09-12T16:52:57.929Z,0.83
2018-09-12T16:55:26.936Z,0.80
2018-09-12T16:57:55.981Z,0.80
2018-09-12T17:00:25.001Z,0.90
2018-09-12T17:02:54.279Z,0.70
2018-09-12T17:05:23.236Z,0.60
2018-09-12T17:07:52.217Z,0.90
2018-09-12T17:10:21.208Z,1.07
2018-09-12T17:12:50.181Z,0.60
2018-09-12T17:15:19.237Z,0.67
2018-09-12T17:17:48.289Z,0.90
2018-09-12T17:20:17.732Z,0.67
2018-09-12T17:22:46.742Z,1.20
2018-09-12T17:25:15.669Z,1.10
2018-09-12T17:27:44.690Z,1.10
2018-09-12T17:30:13.690Z,0.70
2018-09-12T17:32:42.638Z,0.70
2018-09-12T17:35:11.658Z,0.80
2018-09-12T17:37:40.592Z,0.73
2018-09-12T17:40:09.594Z,0.70
2018-09-12T17:42:38.490Z,0.67
2018-09-12T17:45:08.266Z,0.90
2018-09-12T17:47:37.504Z,0.70
2018-09-12T17:50:06.569Z,0.90
2018-09-12T17:52:35.466Z,1.10
2018-09-12T17:55:04.500Z,0.90
2018-09-12T17:57:33.379Z,0.73
2018-09-12T18:00:02.373Z,0.40
2018-09-12T18:02:31.331Z,0.60
2018-09-12T18:05:00.310Z,1.07
2018-09-12T18:07:29.224Z,0.60
2018-09-12T18:09:58.343Z,0.90
2018-09-12T18:12:27.294Z,1.40
2018-09-12T18:14:56.237Z,1.33
2018-09-12T18:17:25.187Z,1.20
2018-09-12T18:19:54.154Z,1.03
2018-09-12T18:22:23.193Z,1.00
2018-09-12T18:24:52.336Z,1.23
2018-09-12T18:27:21.365Z,1.27
2018-09-12T18:29:50.467Z,1.40
2018-09-12T18:32:19.417Z,1.00
2018-09-12T18:34:48.445Z,1.33
2018-09-12T18:37:17.474Z,1.60
2018-09-12T18:39:46.416Z,1.43
2018-09-12T18:42:15.365Z,1.37
2018-09-12T18:44:44.337Z,1.13
2018-09-12T18:47:13.226Z,1.47
2018-09-12T18:49:42.223Z,1.07
2018-09-12T18:52:11.212Z,1.30
2018-09-12T18:54:40.247Z,1.07
2018-09-12T18:57:09.155Z,1.53
2018-09-12T18:59:38.231Z,1.47
2018-09-12T19:02:07.273Z,1.40
2018-09-12T19:04:36.328Z,1.20
2018-09-12T19:07:05.380Z,1.20
2018-09-12T19:09:34.350Z,1.40
2018-09-12T19:12:03.291Z,1.30
2018-09-12T19:14:32.226Z,1.67
2018-09-12T19:17:01.214Z,1.70
2018-09-12T19:19:30.170Z,1.60
2018-09-12T19:21:59.173Z,1.90
2018-09-12T19:24:28.158Z,1.90
2018-09-12T19:26:57.201Z,1.93
2018-09-12T19:29:26.162Z,2.20
2018-09-12T19:31:55.053Z,2.07
2018-09-12T19:34:24.012Z,2.20
2018-09-12T19:36:53.231Z,1.60
2018-09-12T19:39:22.258Z,1.83
2018-09-12T19:41:51.217Z,1.97
2018-09-12T19:44:20.278Z,1.90
2018-09-12T19:46:49.225Z,2.10
2018-09-12T19:49:18.194Z,2.20
2018-09-12T19:51:47.170Z,2.83
2018-09-12T19:54:16.196Z,2.20
2018-09-12T19:56:45.142Z,2.40
2018-09-12T19:59:14.231Z,2.60
2018-09-12T20:01:43.150Z,2.27
2018-09-12T20:04:12.189Z,2.40
2018-09-12T20:06:41.172Z,2.20
2018-09-12T20:09:11.615Z,2.60
2018-09-12T20:11:41.037Z,2.10
2018-09-12T20:14:10.103Z,2.17
2018-09-12T20:16:39.010Z,2.83
2018-09-12T20:19:08.110Z,2.67
2018-09-12T20:21:37.133Z,2.33
2018-09-12T20:24:06.161Z,2.93
2018-09-12T20:26:35.206Z,2.80
2018-09-12T20:29:04.133Z,2.20
2018-09-12T20:31:33.080Z,2.40
2018-09-12T20:34:02.010Z,2.50
2018-09-12T20:36:31.089Z,2.10
2018-09-12T20:39:00.168Z,2.27
2018-09-12T20:41:29.209Z,2.80
2018-09-12T20:43:58.159Z,2.10
2018-09-12T20:46:27.095Z,2.73
2018-09-12T20:48:56.164Z,2.67
2018-09-12T20:51:25.149Z,2.10
2018-09-12T20:53:54.217Z,2.27
2018-09-12T20:56:23.227Z,2.57
2018-09-12T20:58:52.158Z,2.87
2018-09-12T21:01:21.167Z,2.90
2018-09-12T21:03:50.066Z,2.63
2018-09-12T21:06:19.057Z,3.07
2018-09-12T21:08:48.045Z,3.30
2018-09-12T21:11:17.082Z,3.13
2018-09-12T21:13:46.096Z,2.40
2018-09-12T21:16:15.122Z,3.07
2018-09-12T21:18:44.082Z,2.70
2018-09-12T21:21:13.106Z,3.77
2018-09-12T21:23:42.125Z,3.33
2018-09-12T21:26:11.143Z,3.00
2018-09-12T21:28:40.201Z,2.23
2018-09-12T21:31:09.184Z,2.33
2018-09-12T21:33:38.147Z,3.00
2018-09-12T21:36:07.235Z,3.43
2018-09-12T21:38:36.174Z,3.03
2018-09-12T21:41:05.327Z,3.80
2018-09-12T21:43:34.225Z,2.70
2018-09-12T21:46:03.291Z,2.90
2018-09-12T21:48:32.209Z,3.23
2018-09-12T21:51:01.154Z,3.90
2018-09-12T21:53:30.097Z,3.30
2018-09-12T21:55:59.067Z,3.43
2018-09-12T21:58:27.981Z,3.47
2018-09-12T22:00:57.104Z,3.20
2018-09-12T22:03:26.164Z,3.93
2018-09-12T22:05:55.191Z,2.70
2018-09-12T22:08:24.210Z,3.90
2018-09-12T22:10:53.185Z,2.97
2018-09-12T22:13:22.167Z,3.10
2018-09-12T22:15:51.241Z,3.90
2018-09-12T22:18:20.280Z,3.20
2018-09-12T22:20:49.349Z,3.30
2018-09-12T22:23:18.325Z,3.77
2018-09-12T22:25:47.308Z,3.80
2018-09-12T22:28:16.265Z,4.73
2018-09-12T22:30:45.579Z,3.50
2018-09-12T22:33:14.533Z,4.63
2018-09-12T22:35:43.590Z,3.80
2018-09-12T22:38:12.494Z,3.33
2018-09-12T22:40:41.495Z,4.17
2018-09-12T22:43:10.493Z,3.53
2018-09-12T22:45:39.598Z,4.40
2018-09-12T22:48:08.574Z,3.23
2018-09-12T22:50:37.564Z,4.20
2018-09-12T22:53:06.584Z,3.47
2018-09-12T22:55:35.559Z,2.67
2018-09-12T22:58:04.571Z,3.30
2018-09-12T23:00:33.614Z,4.40
2018-09-12T23:03:02.571Z,2.83
2018-09-12T23:05:31.542Z,5.20
2018-09-12T23:08:00.483Z,4.70
2018-09-12T23:10:29.494Z,4.27
2018-09-12T23:12:58.406Z,4.23
2018-09-12T23:15:27.489Z,4.23
2018-09-12T23:17:56.415Z,4.40
2018-09-12T23:20:25.444Z,3.90
2018-09-12T23:22:54.434Z,4.40
2018-09-12T23:25:23.409Z,4.33
2018-09-12T23:27:52.447Z,4.03
2018-09-12T23:30:21.390Z,4.53
2018-09-12T23:32:50.446Z,4.30
2018-09-12T23:35:19.493Z,5.20
2018-09-12T23:37:48.480Z,4.30
2018-09-12T23:40:17.393Z,4.77
2018-09-12T23:42:46.317Z,3.63
2018-09-12T23:45:15.363Z,4.50
2018-09-12T23:47:44.286Z,3.83
2018-09-12T23:50:13.258Z,4.87
2018-09-12T23:52:42.257Z,4.53
2018-09-12T23:55:11.241Z,4.63
2018-09-12T23:57:40.234Z,4.90
